Time;durP1;ratioP1;P1;durP2;ratioP2;P2;SDS_P1;SDS_P2;PMS_P1;PMS_P2;Temp;Humidity;BMP_temperature;BMP_pressure;BME280_temperature;BME280_humidity;BME280_pressure;Samples;Min_cycle;Max_cycle;Signal;HPM_P1;HPM_P2
2023/03/31 00:01:28;;;;;;;6.57;1.42;;;11.50;99.90;;;;;;5112196;28;20249;-83
2023/03/31 00:04:00;;;;;;;6.40;1.70;;;11.50;99.90;;;;;;5113400;28;20015;-82
2023/03/31 00:06:27;;;;;;;7.57;1.83;;;11.50;99.90;;;;;;5111422;28;20570;-82
2023/03/31 00:09:00;;;;;;;4.25;1.42;;;11.50;99.90;;;;;;5098279;28;20032;-83
2023/03/31 00:11:26;;;;;;;8.77;1.88;;;11.50;99.90;;;;;;5110920;28;20029;-83
2023/03/31 00:13:52;;;;;;;7.07;2.47;;;11.50;99.90;;;;;;5099659;28;20035;-81
2023/03/31 00:16:18;;;;;;;4.93;2.00;;;11.40;99.90;;;;;;5095877;28;20020;-82
2023/03/31 00:18:49;;;;;;;7.75;1.58;;;11.40;99.90;;;;;;5104799;28;20035;-82
2023/03/31 00:21:23;;;;;;;7.90;2.53;;;11.40;99.90;;;;;;5112139;28;20047;-82
2023/03/31 00:23:52;;;;;;;9.90;2.20;;;11.40;99.90;;;;;;5112239;28;20016;-83
2023/03/31 00:26:17;;;;;;;6.10;1.90;;;11.40;99.90;;;;;;5102425;28;20020;-82
2023/03/31 00:28:46;;;;;;;9.02;2.10;;;11.50;99.90;;;;;;5104798;28;20452;-81
2023/03/31 00:31:11;;;;;;;4.93;1.50;;;11.50;99.90;;;;;;5099662;28;20031;-81
2023/03/31 00:33:37;;;;;;;8.85;2.03;;;11.50;99.90;;;;;;5095254;28;20076;-83
2023/03/31 00:36:04;;;;;;;4.53;1.85;;;11.60;99.90;;;;;;5110426;28;20027;-83
2023/03/31 00:38:31;;;;;;;6.50;1.83;;;11.60;99.90;;;;;;5111974;28;20039;-83
2023/03/31 00:40:58;;;;;;;8.35;1.70;;;11.60;99.90;;;;;;5111679;28;20023;-79
2023/03/31 00:43:29;;;;;;;5.97;1.80;;;11.70;99.90;;;;;;5094857;28;20453;-82
2023/03/31 00:46:22;;;;;;;6.95;1.70;;;11.70;99.90;;;;;;5105728;28;20020;-81
2023/03/31 00:48:58;;;;;;;6.30;1.63;;;11.70;99.90;;;;;;5096523;28;20040;-82
2023/03/31 00:51:29;;;;;;;7.82;1.77;;;11.60;99.90;;;;;;5110860;27;20027;-80
2023/03/31 00:53:58;;;;;;;7.30;1.83;;;11.70;99.90;;;;;;5112747;28;20522;-82
2023/03/31 00:56:27;;;;;;;5.95;1.67;;;11.70;99.90;;;;;;5099072;28;20044;-82
2023/03/31 00:58:58;;;;;;;8.85;1.70;;;11.80;99.90;;;;;;5099379;28;20020;-82
2023/03/31 01:01:25;;;;;;;13.20;2.47;;;11.80;99.90;;;;;;5090990;28;20052;-82
2023/03/31 01:03:51;;;;;;;5.57;2.00;;;12.00;99.90;;;;;;5096000;28;20028;-82
2023/03/31 01:06:22;;;;;;;5.93;1.42;;;11.90;99.90;;;;;;5102820;28;20031;-82
2023/03/31 01:08:50;;;;;;;10.57;2.33;;;11.90;99.90;;;;;;5105068;28;20032;-82
2023/03/31 01:11:19;;;;;;;9.77;1.92;;;11.90;99.90;;;;;;5109003;28;20107;-81
2023/03/31 01:13:48;;;;;;;6.90;1.98;;;11.90;99.90;;;;;;5101260;28;20034;-82
2023/03/31 01:16:15;;;;;;;8.23;2.17;;;12.00;99.90;;;;;;5098187;28;20032;-82
2023/03/31 01:18:45;;;;;;;8.00;1.90;;;12.00;99.90;;;;;;5103620;28;20518;-83
2023/03/31 01:21:31;;;;;;;10.50;2.00;;;12.00;99.90;;;;;;5109554;28;20055;-78
2023/03/31 01:24:18;;;;;;;7.30;1.95;;;12.00;99.90;;;;;;5090985;28;20461;-82
2023/03/31 01:27:21;;;;;;;3.38;1.80;;;12.00;99.90;;;;;;5103413;28;20023;-81
2023/03/31 01:29:59;;;;;;;8.80;2.10;;;12.00;99.90;;;;;;5112298;28;20107;-83
2023/03/31 01:32:48;;;;;;;11.88;2.20;;;12.00;99.90;;;;;;5109156;28;20385;-82
2023/03/31 01:35:26;;;;;;;8.00;2.30;;;12.00;99.90;;;;;;5094214;28;20077;-82
2023/03/31 01:38:03;;;;;;;8.52;2.63;;;12.00;99.90;;;;;;5096877;28;20055;-82
2023/03/31 01:40:57;;;;;;;6.10;1.95;;;12.00;99.90;;;;;;5110083;28;20096;-82
2023/03/31 01:43:45;;;;;;;10.77;1.85;;;12.00;99.90;;;;;;5093348;28;20107;-82
2023/03/31 01:46:40;;;;;;;10.52;2.00;;;12.20;99.90;;;;;;5110635;28;20023;-79
2023/03/31 01:49:20;;;;;;;9.13;1.85;;;12.20;99.90;;;;;;5111303;28;20035;-82
2023/03/31 01:52:16;;;;;;;8.73;1.65;;;12.20;99.90;;;;;;5090323;28;20020;-83
2023/03/31 01:54:51;;;;;;;7.72;1.85;;;12.30;99.90;;;;;;5100015;28;20028;-81
2023/03/31 01:57:28;;;;;;;7.25;1.95;;;12.30;99.90;;;;;;5097348;28;20028;-82
2023/03/31 02:00:07;;;;;;;6.13;2.17;;;12.20;99.90;;;;;;5096383;28;20020;-80
2023/03/31 02:02:46;;;;;;;9.85;2.38;;;12.10;99.90;;;;;;5099477;28;20024;-81
2023/03/31 02:05:17;;;;;;;11.23;1.90;;;12.00;99.90;;;;;;5107409;28;20038;-75
2023/03/31 02:07:52;;;;;;;10.43;2.33;;;12.00;99.90;;;;;;5107340;28;20104;-82
2023/03/31 02:10:20;;;;;;;8.05;1.98;;;11.90;99.90;;;;;;5097938;28;20020;-82
2023/03/31 02:12:47;;;;;;;6.93;1.88;;;11.80;99.90;;;;;;5100611;28;20523;-83
2023/03/31 02:15:22;;;;;;;7.28;1.95;;;11.70;99.90;;;;;;5098307;28;20047;-81
2023/03/31 02:17:53;;;;;;;4.95;1.80;;;11.60;99.90;;;;;;5097029;28;20039;-82
2023/03/31 02:20:21;;;;;;;6.22;1.63;;;11.50;99.90;;;;;;5123268;28;20004;-78
2023/03/31 02:22:51;;;;;;;5.78;1.95;;;11.50;99.90;;;;;;5126993;28;20036;-81
2023/03/31 02:25:24;;;;;;;8.75;2.40;;;11.50;99.90;;;;;;5114543;28;20012;-82
2023/03/31 02:27:54;;;;;;;10.18;2.15;;;11.40;99.90;;;;;;5118444;28;20028;-81
2023/03/31 02:30:20;;;;;;;5.88;1.90;;;11.40;99.90;;;;;;5122005;28;20016;-81
2023/03/31 02:32:46;;;;;;;5.93;1.55;;;11.30;99.90;;;;;;5125959;28;20051;-82
2023/03/31 02:35:15;;;;;;;7.13;1.83;;;11.20;99.90;;;;;;5115000;28;20028;-74
2023/03/31 02:37:42;;;;;;;10.00;2.47;;;11.10;99.90;;;;;;5114836;28;20395;-83
2023/03/31 02:40:17;;;;;;;7.30;2.45;;;11.00;99.90;;;;;;5113516;28;20043;-75
2023/03/31 02:42:42;;;;;;;8.02;2.20;;;10.90;99.90;;;;;;5103227;28;20032;-84
2023/03/31 02:45:39;;;;;;;7.25;1.80;;;10.90;99.90;;;;;;5110200;28;20031;-75
2023/03/31 02:48:21;;;;;;;10.10;2.47;;;10.90;99.90;;;;;;5115487;28;20437;-82
2023/03/31 02:50:50;;;;;;;6.32;2.10;;;10.90;99.90;;;;;;5115250;28;20441;-83
2023/03/31 02:53:35;;;;;;;6.75;1.92;;;10.80;99.90;;;;;;5097252;28;20031;-83
2023/03/31 02:56:26;;;;;;;6.45;2.28;;;10.80;99.90;;;;;;5094310;28;20024;-82
2023/03/31 02:59:10;;;;;;;8.65;2.00;;;10.70;99.90;;;;;;5108094;28;20066;-82
2023/03/31 03:01:36;;;;;;;3.60;1.88;;;10.70;99.90;;;;;;5110918;28;20039;-82
2023/03/31 03:04:12;;;;;;;6.63;2.45;;;10.70;99.90;;;;;;5100746;28;20027;-83
2023/03/31 03:07:17;;;;;;;10.00;2.17;;;10.80;99.90;;;;;;5113865;28;20473;-83
2023/03/31 03:09:49;;;;;;;8.27;1.95;;;10.70;99.90;;;;;;5082935;28;20043;-83
2023/03/31 03:12:27;;;;;;;9.02;2.50;;;10.70;99.90;;;;;;5093435;28;20024;-83
2023/03/31 03:15:12;;;;;;;5.72;1.98;;;10.70;99.90;;;;;;5113901;27;20472;-82
2023/03/31 03:17:40;;;;;;;4.47;1.77;;;;;;;;;;5098019;28;20064;-81
2023/03/31 03:20:08;;;;;;;10.00;2.42;;;10.60;99.90;;;;;;5108131;28;20110;-84
2023/03/31 03:22:37;;;;;;;10.27;2.95;;;10.60;99.90;;;;;;5113425;28;20020;-83
2023/03/31 03:25:09;;;;;;;7.53;2.10;;;10.50;99.90;;;;;;5114513;28;20020;-83
2023/03/31 03:27:35;;;;;;;9.45;2.30;;;;;;;;;;5113147;28;20031;-83
2023/03/31 03:30:02;;;;;;;4.78;2.22;;;;;;;;;;5104679;28;20028;-83
2023/03/31 03:32:28;;;;;;;6.30;2.25;;;;;;;;;;5099645;28;20030;-82
2023/03/31 03:34:54;;;;;;;7.15;2.17;;;;;;;;;;5107434;28;20473;-83
2023/03/31 03:37:20;;;;;;;5.68;2.13;;;;;;;;;;5112415;28;20031;-84
2023/03/31 03:39:49;;;;;;;4.70;1.98;;;;;;;;;;5100618;28;20031;-83
2023/03/31 03:42:15;;;;;;;6.47;2.10;;;;;;;;;;5100394;28;20024;-84
2023/03/31 03:44:41;;;;;;;5.13;2.30;;;;;;;;;;5113989;28;20027;-83
2023/03/31 03:47:07;;;;;;;8.20;2.00;;;;;;;;;;5112684;28;20051;-75
2023/03/31 03:49:33;;;;;;;8.27;2.35;;;;;;;;;;5109367;28;20035;-83
2023/03/31 03:51:59;;;;;;;5.53;2.05;;;;;;;;;;5098800;28;20024;-83
2023/03/31 03:54:25;;;;;;;7.28;2.35;;;;;;;;;;5113369;28;20027;-84
2023/03/31 03:56:51;;;;;;;4.88;2.15;;;;;;;;;;5113015;28;20427;-79
2023/03/31 03:59:17;;;;;;;8.27;2.63;;;;;;;;;;5102591;28;20058;-80
2023/03/31 04:01:43;;;;;;;9.82;2.40;;;;;;;;;;5096707;28;20019;-82
2023/03/31 04:04:12;;;;;;;7.00;2.50;;;;;;;;;;5113686;28;20012;-74
2023/03/31 04:06:38;;;;;;;6.22;2.33;;;;;;;;;;5100887;28;20024;-81
2023/03/31 04:09:04;;;;;;;5.75;2.30;;;;;;;;;;5106749;28;20019;-82
2023/03/31 04:11:31;;;;;;;8.32;2.30;;;;;;;;;;5095156;28;20050;-82
2023/03/31 04:13:57;;;;;;;6.93;2.53;;;;;;;;;;5098392;28;20074;-81
2023/03/31 04:16:24;;;;;;;7.63;2.90;;;;;;;;;;5092027;28;20020;-82
2023/03/31 04:18:51;;;;;;;7.70;2.90;;;;;;;;;;5095993;28;20103;-83
2023/03/31 04:21:23;;;;;;;7.32;2.85;;;;;;;;;;5096162;28;20103;-82
2023/03/31 04:23:57;;;;;;;7.95;2.90;;;;;;;;;;5109621;28;20016;-84
2023/03/31 04:26:29;;;;;;;11.73;3.47;;;;;;;;;;5101848;28;20024;-85
2023/03/31 04:28:57;;;;;;;11.00;2.65;;;;;;;;;;5097189;28;20067;-84
2023/03/31 04:31:26;;;;;;;13.02;2.97;;;;;;;;;;5109130;28;20020;-84
2023/03/31 04:33:52;;;;;;;10.50;3.05;;;;;;;;;;5093278;28;20201;-84
2023/03/31 04:36:18;;;;;;;12.18;3.30;;;;;;;;;;5091640;28;20087;-82
2023/03/31 04:38:53;;;;;;;7.65;3.20;;;;;;;;;;5096499;28;20413;-83
2023/03/31 04:41:20;;;;;;;8.75;3.15;;;;;;;;;;5091430;28;20032;-82
2023/03/31 04:43:46;;;;;;;6.60;2.97;;;;;;;;;;5092500;28;20144;-79
2023/03/31 04:46:12;;;;;;;11.73;3.80;;;;;;;;;;5091740;28;20045;-82
2023/03/31 04:48:38;;;;;;;10.32;3.53;;;;;;;;;;5095285;28;20083;-85
2023/03/31 04:51:04;;;;;;;12.52;3.50;;;;;;;;;;5107339;28;20030;-83
2023/03/31 04:53:30;;;;;;;8.90;3.60;;;;;;;;;;5111762;28;20020;-85
2023/03/31 04:55:56;;;;;;;13.35;3.83;;;;;;;;;;5110114;28;20073;-85
2023/03/31 04:58:22;;;;;;;11.60;3.30;;;;;;;;;;5103969;28;20043;-83
2023/03/31 05:00:48;;;;;;;13.32;3.78;;;;;;;;;;5105240;28;20067;-83
2023/03/31 05:03:14;;;;;;;7.68;3.05;;;;;;;;;;5107462;28;20083;-84
2023/03/31 05:05:41;;;;;;;9.73;3.08;;;;;;;;;;5110195;28;20015;-86
2023/03/31 05:08:07;;;;;;;8.40;2.67;;;;;;;;;;5105419;28;20036;-85
2023/03/31 05:10:33;;;;;;;9.27;4.03;;;;;;;;;;5101930;28;20849;-84
2023/03/31 05:12:59;;;;;;;9.68;3.53;;;;;;;;;;5106014;28;20178;-83
2023/03/31 05:15:25;;;;;;;9.43;3.25;;;;;;;;;;5090446;28;20020;-85
2023/03/31 05:17:51;;;;;;;8.40;3.22;;;;;;;;;;5097048;28;20027;-85
2023/03/31 05:20:18;;;;;;;11.60;4.10;;;;;;;;;;5111099;28;20015;-79
2023/03/31 05:22:44;;;;;;;11.07;3.72;;;;;;;;;;5112300;28;20107;-73
2023/03/31 05:25:13;;;;;;;10.80;3.70;;;;;;;;;;5111170;28;20081;-74
2023/03/31 05:27:39;;;;;;;15.55;3.95;;;;;;;;;;5108070;28;20176;-76
2023/03/31 05:30:07;;;;;;;9.93;3.92;;;;;;;;;;5097311;28;20015;-79
2023/03/31 05:32:33;;;;;;;12.73;3.70;;;;;;;;;;5090974;28;20131;-79
2023/03/31 05:34:59;;;;;;;11.57;4.60;;;;;;;;;;5091598;28;20048;-78
2023/03/31 05:37:26;;;;;;;10.77;4.00;;;;;;;;;;5091839;28;20063;-78
2023/03/31 05:39:52;;;;;;;10.13;4.55;;;;;;;;;;5091349;28;20380;-75
2023/03/31 05:42:18;;;;;;;16.30;5.18;;;;;;;;;;5090105;28;20039;-80
2023/03/31 05:44:44;;;;;;;13.73;4.70;;;;;;;;;;5092066;28;20034;-79
2023/03/31 05:47:11;;;;;;;14.98;4.78;;;;;;;;;;5090240;28;20055;-75
2023/03/31 05:49:37;;;;;;;12.35;4.68;;;;;;;;;;5091443;28;20063;-79
2023/03/31 05:52:05;;;;;;;13.43;4.78;;;;;;;;;;5098684;28;20467;-78
2023/03/31 05:54:31;;;;;;;12.73;4.97;;;;;;;;;;5110920;28;20431;-78
2023/03/31 05:56:57;;;;;;;13.07;4.95;;;;;;;;;;5101284;28;20028;-78
2023/03/31 05:59:23;;;;;;;19.00;5.20;;;;;;;;;;5110580;28;20105;-78
2023/03/31 06:01:48;;;;;;;12.90;5.22;;;8.90;99.90;;;;;;5107326;28;20035;-77
2023/03/31 06:04:14;;;;;;;13.48;5.60;;;8.80;99.90;;;;;;5098762;28;20099;-78
2023/03/31 06:06:41;;;;;;;15.35;5.82;;;8.70;99.90;;;;;;5099129;28;20142;-78
2023/03/31 06:09:07;;;;;;;14.18;5.28;;;8.60;99.90;;;;;;5107752;28;20471;-74
2023/03/31 06:11:33;;;;;;;14.38;5.22;;;8.60;99.90;;;;;;5111169;28;20096;-79
2023/03/31 06:13:59;;;;;;;12.20;5.07;;;8.60;99.90;;;;;;5096734;28;20026;-78
2023/03/31 06:16:25;;;;;;;13.40;5.25;;;8.60;99.90;;;;;;5089720;28;20377;-76
2023/03/31 06:18:52;;;;;;;15.00;5.72;;;8.60;99.90;;;;;;5104745;28;20435;-79
2023/03/31 06:21:19;;;;;;;11.63;5.25;;;8.60;99.90;;;;;;5115595;28;20190;-79
2023/03/31 06:23:45;;;;;;;13.05;5.25;;;8.60;99.90;;;;;;5076124;28;20425;-77
2023/03/31 06:26:13;;;;;;;14.85;6.03;;;8.60;99.90;;;;;;5102615;28;20111;-73
2023/03/31 06:28:38;;;;;;;16.80;6.10;;;8.70;99.90;;;;;;5097713;28;20115;-77
2023/03/31 06:31:07;;;;;;;14.32;5.88;;;8.70;99.90;;;;;;5100839;28;20388;-77
2023/03/31 06:33:34;;;;;;;12.82;5.13;;;8.70;99.90;;;;;;5099731;28;20098;-78
2023/03/31 06:36:02;;;;;;;11.52;5.70;;;8.70;99.90;;;;;;5097145;28;20106;-79
2023/03/31 06:38:28;;;;;;;13.88;5.70;;;8.70;99.90;;;;;;5103838;28;20020;-79
2023/03/31 06:40:54;;;;;;;14.25;5.30;;;8.70;99.90;;;;;;5090700;28;20021;-76
2023/03/31 06:43:19;;;;;;;16.63;6.25;;;8.70;99.90;;;;;;5089992;28;20103;-75
2023/03/31 06:45:46;;;;;;;15.88;6.10;;;8.70;99.90;;;;;;5090999;28;20354;-77
2023/03/31 06:48:12;;;;;;;17.65;6.50;;;8.70;99.90;;;;;;5094373;28;20068;-77
2023/03/31 06:50:38;;;;;;;14.55;6.32;;;8.70;99.90;;;;;;5101071;28;20073;-78
2023/03/31 06:53:04;;;;;;;17.70;5.90;;;8.70;99.90;;;;;;5105992;28;20483;-79
2023/03/31 06:55:32;;;;;;;13.88;6.40;;;8.70;99.90;;;;;;5100267;28;20035;-78
2023/03/31 06:57:58;;;;;;;12.48;6.95;;;8.60;99.90;;;;;;5101825;28;20032;-78
2023/03/31 07:00:25;;;;;;;16.52;6.18;;;8.60;99.90;;;;;;5110147;28;20368;-79
2023/03/31 07:02:51;;;;;;;13.77;6.30;;;8.60;99.90;;;;;;5111924;28;20031;-77
2023/03/31 07:05:18;;;;;;;15.25;6.13;;;8.70;99.90;;;;;;5095795;28;20047;-76
2023/03/31 07:07:44;;;;;;;16.10;6.40;;;8.80;99.90;;;;;;5098294;28;20031;-79
2023/03/31 07:10:10;;;;;;;11.20;5.45;;;8.80;99.90;;;;;;5114130;28;20089;-73
2023/03/31 07:12:35;;;;;;;10.80;4.65;;;9.00;99.90;;;;;;5109393;28;20023;-78
2023/03/31 07:15:01;;;;;;;12.05;4.43;;;9.20;99.90;;;;;;5096564;28;20457;-78
2023/03/31 07:17:27;;;;;;;7.97;3.70;;;9.30;99.90;;;;;;5091916;28;20480;-78
2023/03/31 07:19:53;;;;;;;10.93;4.13;;;9.30;99.90;;;;;;5099703;28;20060;-77
2023/03/31 07:22:18;;;;;;;8.18;3.90;;;9.30;99.90;;;;;;5113457;28;20094;-78
2023/03/31 07:24:44;;;;;;;6.65;3.35;;;9.30;99.90;;;;;;5114371;28;20023;-77
2023/03/31 07:27:09;;;;;;;10.60;3.65;;;9.20;99.90;;;;;;5113490;28;20032;-73
2023/03/31 07:29:35;;;;;;;6.88;3.03;;;9.20;99.90;;;;;;5111090;28;20024;-78
2023/03/31 07:32:01;;;;;;;6.43;2.88;;;9.30;99.90;;;;;;5093627;28;20047;-78
2023/03/31 07:34:26;;;;;;;7.47;2.65;;;9.30;99.90;;;;;;5093677;28;20024;-78
2023/03/31 07:36:54;;;;;;;6.53;2.92;;;9.40;99.90;;;;;;5107313;28;20065;-76
2023/03/31 07:39:20;;;;;;;6.95;2.22;;;9.50;99.90;;;;;;5114506;28;20080;-78
2023/03/31 07:41:46;;;;;;;3.22;2.00;;;9.50;99.90;;;;;;5123229;28;20028;-78
2023/03/31 07:44:12;;;;;;;4.15;2.10;;;9.70;99.90;;;;;;5125700;28;20027;-77
2023/03/31 07:46:39;;;;;;;6.47;1.42;;;9.70;99.90;;;;;;5123018;28;20054;-78
2023/03/31 07:49:06;;;;;;;5.13;1.50;;;9.80;99.90;;;;;;5106486;28;20528;-78
2023/03/31 07:51:31;;;;;;;3.50;1.40;;;9.90;99.90;;;;;;5110306;28;20028;-76
2023/03/31 07:53:57;;;;;;;3.75;1.52;;;10.00;99.90;;;;;;5113325;28;20487;-78
2023/03/31 07:56:24;;;;;;;5.72;1.42;;;10.00;99.90;;;;;;5104319;28;20491;-77
2023/03/31 07:58:51;;;;;;;2.92;1.02;;;10.10;99.90;;;;;;5107846;28;20038;-77
2023/03/31 08:01:18;;;;;;;2.50;1.17;;;10.30;99.90;;;;;;5112898;28;20480;-80
2023/03/31 08:03:46;;;;;;;2.58;0.80;;;10.30;99.90;;;;;;5109639;28;20024;-78
2023/03/31 08:06:21;;;;;;;2.33;0.88;;;10.30;99.90;;;;;;5100162;28;20019;-77
2023/03/31 08:08:50;;;;;;;3.30;0.90;;;10.30;99.90;;;;;;5115588;28;20034;-76
2023/03/31 08:11:16;;;;;;;2.47;0.90;;;10.30;99.90;;;;;;5119019;28;20031;-80
2023/03/31 08:13:42;;;;;;;1.42;0.82;;;10.30;99.90;;;;;;5100064;28;20020;-77
2023/03/31 08:16:08;;;;;;;2.78;1.15;;;10.40;99.90;;;;;;5097614;28;20103;-71
2023/03/31 08:18:33;;;;;;;1.25;0.70;;;10.60;99.90;;;;;;5092403;28;20518;-77
2023/03/31 08:20:59;;;;;;;1.80;1.00;;;10.70;99.90;;;;;;5105845;28;20028;-76
2023/03/31 08:23:25;;;;;;;1.30;0.85;;;10.80;99.90;;;;;;5096386;28;20028;-74
2023/03/31 08:25:51;;;;;;;1.42;0.80;;;10.90;99.90;;;;;;5108430;28;20055;-76
2023/03/31 08:28:17;;;;;;;1.58;0.82;;;11.10;99.90;;;;;;5092609;28;20103;-76
2023/03/31 08:30:42;;;;;;;2.85;1.33;;;11.10;99.90;;;;;;5093760;28;20036;-75
2023/03/31 08:33:11;;;;;;;3.67;1.00;;;11.20;99.90;;;;;;5093159;28;20044;-71
2023/03/31 08:35:37;;;;;;;5.07;0.70;;;11.30;99.90;;;;;;5092768;28;20028;-76
2023/03/31 08:38:03;;;;;;;3.17;0.75;;;11.50;99.90;;;;;;5099627;28;20031;-76
2023/03/31 08:40:31;;;;;;;2.22;0.82;;;11.70;99.90;;;;;;5100786;28;20625;-76
2023/03/31 08:43:05;;;;;;;1.40;0.95;;;11.90;99.90;;;;;;5095185;28;20027;-75
2023/03/31 08:45:42;;;;;;;3.42;1.00;;;11.90;99.90;;;;;;5095357;28;20032;-75
2023/03/31 08:48:28;;;;;;;2.63;1.30;;;12.10;99.90;;;;;;5112118;28;20036;-72
2023/03/31 08:51:26;;;;;;;3.72;1.10;;;12.20;99.90;;;;;;5112605;28;20492;-75
2023/03/31 08:53:58;;;;;;;3.05;1.50;;;12.40;99.90;;;;;;5096340;28;20453;-77
2023/03/31 08:56:26;;;;;;;4.40;1.38;;;12.60;99.90;;;;;;5102455;28;20770;-77
2023/03/31 08:58:52;;;;;;;4.75;0.85;;;12.70;99.90;;;;;;5105947;28;20030;-76
2023/03/31 09:01:18;;;;;;;6.63;1.38;;;12.90;99.90;;;;;;5112127;28;20030;-79
2023/03/31 09:03:56;;;;;;;5.55;1.08;;;13.00;99.90;;;;;;5091085;28;20031;-73
2023/03/31 09:06:31;;;;;;;4.82;1.10;;;13.10;99.90;;;;;;5092684;28;20020;-76
2023/03/31 09:09:02;;;;;;;6.32;1.33;;;13.20;99.90;;;;;;5101647;28;20036;-76
2023/03/31 09:11:46;;;;;;;5.63;1.20;;;13.30;99.90;;;;;;5091369;28;20103;-76
2023/03/31 09:14:15;;;;;;;5.13;1.08;;;13.40;99.90;;;;;;5099393;28;20500;-77
2023/03/31 09:16:59;;;;;;;4.30;1.00;;;13.60;99.90;;;;;;5096714;28;20055;-76
2023/03/31 09:19:34;;;;;;;3.63;1.23;;;13.80;99.90;;;;;;5096534;28;20027;-76
2023/03/31 09:22:02;;;;;;;4.05;1.30;;;13.90;99.90;;;;;;5091361;28;20029;-74
2023/03/31 09:24:41;;;;;;;6.60;1.15;;;14.00;99.90;;;;;;5090919;28;20042;-77
2023/03/31 09:27:10;;;;;;;4.10;1.13;;;14.20;99.90;;;;;;5091683;28;20392;-76
2023/03/31 09:29:45;;;;;;;6.65;1.02;;;14.20;99.90;;;;;;5111685;28;20031;-77
2023/03/31 09:32:18;;;;;;;4.15;1.35;;;14.50;99.90;;;;;;5110806;28;20156;-72
2023/03/31 09:34:45;;;;;;;3.55;1.10;;;14.50;99.90;;;;;;5105275;28;20473;-76
2023/03/31 09:37:11;;;;;;;7.85;0.85;;;14.90;99.90;;;;;;5126901;27;20031;-72
2023/03/31 09:39:38;;;;;;;2.33;0.98;;;15.10;99.90;;;;;;5135447;27;20043;-77
2023/03/31 09:42:04;;;;;;;3.65;1.00;;;15.20;99.90;;;;;;5133576;27;20499;-78
2023/03/31 09:44:31;;;;;;;4.93;1.08;;;;;;;;;;5131279;27;20608;-76
2023/03/31 09:47:02;;;;;;;2.78;1.10;;;15.20;99.90;;;;;;5092404;28;20057;-79
2023/03/31 09:49:34;;;;;;;3.60;1.33;;;15.00;99.90;;;;;;5071268;28;20028;-77
2023/03/31 09:52:11;;;;;;;6.28;1.00;;;14.90;99.90;;;;;;5077488;28;20032;-77
2023/03/31 09:54:48;;;;;;;5.78;1.08;;;14.80;99.90;;;;;;5092121;28;20465;-78
2023/03/31 09:57:25;;;;;;;4.03;1.33;;;14.90;99.90;;;;;;5090606;28;20055;-77
2023/03/31 09:59:51;;;;;;;5.13;1.10;;;14.90;99.90;;;;;;5091778;28;20213;-78
2023/03/31 10:02:33;;;;;;;6.07;1.60;;;14.90;99.90;;;;;;5084612;28;20446;-76
2023/03/31 10:04:59;;;;;;;5.80;1.40;;;15.50;99.90;;;;;;5073149;28;20079;-76
2023/03/31 10:07:25;;;;;;;5.55;1.20;;;15.10;99.90;;;;;;5091323;28;20032;-77
2023/03/31 10:09:53;;;;;;;7.18;1.60;;;15.20;99.90;;;;;;5094679;28;20024;-77
2023/03/31 10:12:23;;;;;;;4.47;1.08;;;15.40;99.90;;;;;;5090711;28;20024;-78
2023/03/31 10:14:52;;;;;;;;;;;15.30;99.90;;;;;;5079374;28;20174;-79
2023/03/31 10:17:23;;;;;;;6.63;1.55;;;15.40;99.90;;;;;;5073112;28;20027;-78
2023/03/31 10:19:48;;;;;;;3.42;1.35;;;15.50;99.90;;;;;;5084648;28;20044;-80
2023/03/31 10:22:20;;;;;;;5.78;1.25;;;15.50;99.90;;;;;;5081741;28;20039;-80
2023/03/31 10:24:47;;;;;;;6.35;1.55;;;15.50;99.90;;;;;;5087104;28;20017;-80
2023/03/31 10:27:34;;;;;;;6.35;1.77;;;15.70;99.90;;;;;;5084938;28;20025;-76
2023/03/31 10:30:01;;;;;;;6.28;1.45;;;;;;;;;;5089492;28;20029;-80
2023/03/31 10:32:30;;;;;;;4.45;1.50;;;;;;;;;;5085177;28;20052;-77
2023/03/31 10:34:58;;;;;;;6.15;1.35;;;16.50;99.90;;;;;;5077521;28;20051;-80
2023/03/31 10:37:28;;;;;;;6.57;1.60;;;16.60;99.90;;;;;;5077006;28;20108;-78
2023/03/31 10:40:18;;;;;;;5.40;1.60;;;16.60;99.90;;;;;;5077577;28;20089;-78
2023/03/31 10:42:48;;;;;;;5.60;1.73;;;16.70;99.90;;;;;;5078189;28;20035;-75
2023/03/31 10:45:26;;;;;;;5.13;1.23;;;16.40;99.90;;;;;;5077409;28;20036;-77
2023/03/31 10:47:55;;;;;;;6.55;1.70;;;16.40;99.90;;;;;;5088778;28;20055;-77
2023/03/31 10:50:28;;;;;;;7.00;2.22;;;16.30;99.90;;;;;;5096134;28;20059;-77
2023/03/31 10:53:10;;;;;;;6.40;1.63;;;16.40;99.90;;;;;;5103122;28;20046;-76
2023/03/31 10:55:43;;;;;;;5.90;1.58;;;16.60;99.90;;;;;;5117902;28;20035;-76
2023/03/31 10:58:27;;;;;;;5.15;1.20;;;;;;;;;;5118238;28;20041;-72
2023/03/31 11:01:01;;;;;;;5.45;1.27;;;;;;;;;;5117626;28;20027;-78
2023/03/31 11:03:45;;;;;;;8.50;1.90;;;;;;;;;;5118300;28;20027;-77
2023/03/31 11:06:16;;;;;;;6.28;1.30;;;;;;;;;;5119335;28;20452;-73
2023/03/31 11:08:59;;;;;;;7.15;1.80;;;;;;;;;;5109438;28;20035;-77
2023/03/31 11:11:31;;;;;;;7.18;1.60;;;;;;;;;;5100240;28;20030;-78
2023/03/31 11:13:59;;;;;;;6.80;1.60;;;;;;;;;;5106751;28;20016;-80
2023/03/31 11:16:27;;;;;;;10.52;2.50;;;;;;;;;;5093866;28;20051;-78
2023/03/31 11:19:29;;;;;;;6.18;1.70;;;;;;;;;;5098478;28;20070;-79
2023/03/31 11:22:01;;;;;;;8.60;1.80;;;;;;;;;;4996254;28;20086;-79
2023/03/31 11:24:35;;;;;;;11.18;1.80;;;;;;;;;;5082067;28;20043;-81
2023/03/31 11:27:12;;;;;;;12.23;0.90;;;;;;;;;;5104689;28;20031;-79
2023/03/31 11:29:43;;;;;;;2.35;0.40;;;;;;;;;;5096497;28;20099;-77
2023/03/31 11:32:28;;;;;;;7.15;0.63;;;;;;;;;;5095272;28;20031;-72
2023/03/31 11:35:27;;;;;;;3.38;0.40;;;10.10;99.90;;;;;;5102389;28;20028;-78
2023/03/31 11:38:19;;;;;;;2.00;0.57;;;10.10;99.90;;;;;;5025274;28;20038;-78
2023/03/31 11:41:06;;;;;;;3.90;0.40;;;9.60;99.90;;;;;;5094780;28;20028;-77
2023/03/31 11:43:32;;;;;;;1.65;0.50;;;;;;;;;;5098641;28;20028;-78
2023/03/31 11:46:19;;;;;;;4.22;0.65;;;;;;;;;;5117707;28;20505;-78
2023/03/31 11:48:57;;;;;;;3.60;0.73;;;;;;;;;;5117993;28;20062;-76
2023/03/31 11:51:42;;;;;;;1.45;0.50;;;;;;;;;;5114243;28;20338;-78
2023/03/31 11:54:14;;;;;;;2.25;0.15;;;;;;;;;;5101282;28;20067;-72
2023/03/31 11:56:40;;;;;;;1.10;0.25;;;;;;;;;;5099232;28;20020;-77
2023/03/31 11:59:07;;;;;;;2.28;0.45;;;;;;;;;;5115481;28;20024;-77
2023/03/31 12:01:45;;;;;;;0.80;0.60;;;;;;;;;;5103066;28;20047;-77
2023/03/31 12:04:22;;;;;;;5.95;0.88;;;;;;;;;;5112896;28;20094;-72
2023/03/31 12:06:50;;;;;;;1.33;0.38;;;;;;;;;;5113127;28;20042;-76
2023/03/31 12:09:29;;;;;;;1.00;0.40;;;;;;;;;;5112936;28;20031;-76
2023/03/31 12:11:55;;;;;;;2.00;0.40;;;;;;;;;;5113373;28;20026;-75
2023/03/31 12:14:26;;;;;;;1.17;0.43;;;;;;;;;;5112796;28;20102;-77
2023/03/31 12:17:03;;;;;;;2.28;0.30;;;12.90;99.90;;;;;;5105381;28;20028;-77
2023/03/31 12:19:47;;;;;;;1.73;0.50;;;13.30;99.90;;;;;;5093147;28;20024;-77
2023/03/31 12:22:27;;;;;;;1.33;0.28;;;13.70;99.90;;;;;;5091966;28;20042;-76
2023/03/31 12:24:54;;;;;;;2.03;0.77;;;13.70;99.90;;;;;;5093105;28;20028;-77
2023/03/31 12:27:50;;;;;;;1.05;0.35;;;13.60;99.90;;;;;;5091822;28;20043;-77
2023/03/31 12:30:38;;;;;;;1.40;0.40;;;13.70;99.90;;;;;;5091243;28;20036;-75
2023/03/31 12:33:10;;;;;;;1.02;0.40;;;13.80;99.90;;;;;;5093649;28;20031;-76
2023/03/31 12:35:51;;;;;;;1.63;0.50;;;14.10;99.90;;;;;;5099902;28;20030;-76
2023/03/31 12:38:17;;;;;;;3.33;0.50;;;;;;;;;;5105269;28;20028;-73
2023/03/31 12:40:50;;;;;;;1.08;0.35;;;15.40;99.90;;;;;;5093985;28;20044;-75
2023/03/31 12:43:33;;;;;;;2.28;0.65;;;15.60;99.90;;;;;;5092111;28;20020;-75
2023/03/31 12:46:24;;;;;;;1.40;0.47;;;15.90;99.90;;;;;;5093566;28;20032;-76
2023/03/31 12:49:15;;;;;;;2.13;0.50;;;16.30;99.90;;;;;;5091988;28;20400;-75
2023/03/31 12:52:03;;;;;;;2.45;0.40;;;16.70;99.90;;;;;;5101252;28;20035;-76
2023/03/31 12:55:13;;;;;;;2.25;0.57;;;17.20;99.00;;;;;;5097483;28;20587;-76
2023/03/31 12:57:38;;;;;;;1.63;0.60;;;17.20;98.40;;;;;;5083972;28;20118;-76
2023/03/31 13:00:12;;;;;;;2.58;0.50;;;17.20;98.20;;;;;;5112778;28;20058;-76
2023/03/31 13:02:40;;;;;;;10.13;0.73;;;17.20;98.30;;;;;;5112319;28;20095;-76
2023/03/31 13:05:36;;;;;;;5.55;0.77;;;17.00;97.70;;;;;;5112398;28;20028;-77
2023/03/31 13:08:07;;;;;;;3.30;0.80;;;16.30;97.80;;;;;;5112529;28;20035;-76
2023/03/31 13:10:51;;;;;;;8.40;1.10;;;15.90;98.00;;;;;;5093098;28;20030;-77
2023/03/31 13:13:17;;;;;;;2.83;0.90;;;15.90;98.80;;;;;;5103921;28;20035;-78
2023/03/31 13:15:56;;;;;;;7.85;1.27;;;15.80;99.20;;;;;;5112890;28;20461;-81
2023/03/31 13:18:22;;;;;;;2.90;0.75;;;15.60;98.60;;;;;;5113006;27;20023;-82
2023/03/31 13:20:59;;;;;;;6.90;1.27;;;15.40;99.60;;;;;;5112964;28;20031;-82
2023/03/31 13:23:26;;;;;;;6.20;1.40;;;15.00;99.90;;;;;;5114349;28;20059;-84
2023/03/31 13:25:56;;;;;;;3.15;1.30;;;14.70;99.90;;;;;;5097390;28;20038;-84
2023/03/31 13:28:22;;;;;;;6.75;0.98;;;14.20;99.90;;;;;;5102630;28;20449;-81
2023/03/31 13:30:54;;;;;;;2.92;1.08;;;13.40;99.90;;;;;;5112044;28;20027;-81
2023/03/31 13:33:22;;;;;;;2.05;0.50;;;12.60;99.90;;;;;;5112973;28;20023;-79
2023/03/31 13:35:56;;;;;;;2.10;0.60;;;12.10;99.90;;;;;;5113311;28;20023;-76
2023/03/31 13:38:30;;;;;;;2.00;0.45;;;11.80;99.90;;;;;;5110539;28;20054;-77
2023/03/31 13:41:22;;;;;;;1.75;0.55;;;11.60;99.90;;;;;;5112115;28;20030;-74